Terminal Aerodrome Forecast
Issued by NWS

Home | Current Version | Previous Version | Text Only | Print | Product List | Glossary On
Versions: 1 2 3 4 5 6 7 8 9 10 11 12 13 14 15 16 17 18
000
FTUS44 KTSA 312149 AAC
TAFBVO
TAF AMD
KBVO 312149Z 3122/0118 04005KT 5SM -RA BR BKN100 OVC110
     FM312300 04002KT P6SM VCSH OVC100
     FM010200 03005KT P6SM BKN040=

USA.gov is the U.S. government's official web portal to all federal, state and local government web resources and services.